Time;durP1;ratioP1;P1;durP2;ratioP2;P2;SDS_P1;SDS_P2;PMS_P1;PMS_P2;Temp;Humidity;BMP_temperature;BMP_pressure;BME280_temperature;BME280_humidity;BME280_pressure;Samples;Min_cycle;Max_cycle;Signal;HPM_P1;HPM_P2
2020/12/28 05:00:58;;;;;;;8.05;5.13;;;;;;;2.60;72.60;96943.13;6121945;22;21100;-55
2020/12/28 05:03:28;;;;;;;7.05;4.63;;;;;;;3.40;71.19;96965.63;4978815;28;20045;-56
2020/12/28 05:05:54;;;;;;;9.98;5.00;;;;;;;3.08;71.61;96974.38;4990870;28;20048;-55
2020/12/28 05:08:20;;;;;;;8.65;4.90;;;;;;;3.42;71.87;96990.22;4988808;28;20038;-56
2020/12/28 05:10:46;;;;;;;8.80;4.82;;;;;;;2.90;71.29;96980.84;4991483;28;20390;-56
2020/12/28 05:13:17;;;;;;;9.63;5.10;;;;;;;3.17;71.24;96985.41;4989982;28;20048;-55
2020/12/28 05:15:57;;;;;;;9.55;5.20;;;;;;;2.91;72.10;96984.31;4990294;28;20402;-56
2020/12/28 05:18:23;;;;;;;7.30;4.57;;;;;;;2.75;71.34;96988.69;4974061;28;20038;-56
2020/12/28 05:20:50;;;;;;;7.85;4.60;;;;;;;2.89;71.85;96991.75;4989049;28;20226;-56
2020/12/28 05:23:17;;;;;;;6.75;4.68;;;;;;;3.17;70.54;96996.09;4990234;28;20137;-57
2020/12/28 05:25:49;;;;;;;7.35;4.40;;;;;;;2.76;71.13;96998.28;4991945;28;20049;-55
2020/12/28 05:28:17;;;;;;;5.68;4.10;;;;;;;2.96;70.40;96980.91;4987822;28;20049;-55
2020/12/28 05:30:44;;;;;;;9.23;5.35;;;;;;;2.91;69.84;96985.13;4987944;28;20095;-55
2020/12/28 05:33:12;;;;;;;6.82;4.75;;;;;;;2.88;70.36;96974.94;4988244;28;20537;-54
2020/12/28 05:35:41;;;;;;;8.73;4.68;;;;;;;2.75;70.66;96975.34;5005611;28;20128;-56
2020/12/28 05:38:09;;;;;;;7.95;4.53;;;;;;;2.63;70.80;96966.66;4988462;28;20049;-55
2020/12/28 05:40:36;;;;;;;8.50;4.55;;;;;;;2.74;71.19;96971.06;4974035;28;20042;-55
2020/12/28 05:43:03;;;;;;;8.20;5.20;;;;;;;2.64;71.90;96981.59;4987459;28;20052;-55
2020/12/28 05:45:30;;;;;;;6.85;4.22;;;;;;;2.89;70.48;96979.22;4973290;28;20498;-54
2020/12/28 05:47:58;;;;;;;8.57;5.15;;;;;;;2.74;70.33;96989.72;5003820;28;20038;-56
2020/12/28 05:50:30;;;;;;;6.30;4.22;;;;;;;3.02;72.53;96982.56;4993881;28;20029;-55
2020/12/28 05:52:56;;;;;;;7.32;4.53;;;;;;;2.83;71.59;96974.09;4979474;28;20042;-55
2020/12/28 05:55:24;;;;;;;7.47;4.55;;;;;;;2.75;70.90;96980.69;4986384;28;20502;-55
2020/12/28 05:57:51;;;;;;;7.85;4.47;;;;;;;2.63;70.54;96982.66;4990523;28;20050;-56
2020/12/28 06:00:17;;;;;;;6.20;4.15;;;;;;;2.65;70.61;96980.56;4989162;28;20033;-54
2020/12/28 06:02:43;;;;;;;6.95;4.43;;;;;;;2.64;71.07;96999.47;4988404;28;20046;-55
2020/12/28 06:05:10;;;;;;;5.93;4.00;;;;;;;2.56;71.12;96992.69;4974160;28;20539;-55
2020/12/28 06:07:36;;;;;;;8.20;4.78;;;;;;;2.99;72.65;96983.09;4973317;28;21149;-55
2020/12/28 06:10:03;;;;;;;8.32;4.25;;;;;;;2.63;71.46;96985.31;4988986;28;20172;-55
2020/12/28 06:12:29;;;;;;;6.20;4.13;;;;;;;2.67;71.22;96974.94;4999305;28;20052;-54
2020/12/28 06:14:54;;;;;;;6.93;4.32;;;;;;;2.85;73.16;96970.13;5005456;28;20041;-55
2020/12/28 06:17:34;;;;;;;7.97;5.20;;;;;;;2.63;72.06;96972.00;4991269;28;20498;-54
2020/12/28 06:20:07;;;;;;;6.43;4.10;;;;;;;2.48;71.13;96977.91;5009827;28;20057;-55
2020/12/28 06:22:33;;;;;;;7.95;4.07;;;;;;;2.74;72.30;96957.72;4990659;28;20080;-56
2020/12/28 06:25:06;;;;;;;7.60;4.10;;;;;;;2.56;71.23;96958.00;5007879;28;20040;-56
2020/12/28 06:27:34;;;;;;;6.22;4.05;;;;;;;2.37;71.05;96949.53;4977718;28;20034;-56
2020/12/28 06:30:16;;;;;;;7.53;4.13;;;;;;;2.57;71.37;96946.28;4963521;28;20043;-56
2020/12/28 06:32:43;;;;;;;;;;;;;;;2.42;71.27;96944.22;4990360;28;20050;-54
2020/12/28 06:35:14;;;;;;;7.03;3.92;;;;;;;2.33;71.58;96940.38;5002799;28;19917;-56
2020/12/28 06:37:45;;;;;;;6.50;4.22;;;;;;;2.36;71.04;96955.91;4971273;28;20061;-56
2020/12/28 06:40:13;;;;;;;6.07;4.20;;;;;;;2.60;70.57;96959.13;4984562;28;20096;-55
2020/12/28 06:42:40;;;;;;;6.10;3.70;;;;;;;2.44;70.93;96955.47;4986033;28;20099;-54
2020/12/28 06:45:15;;;;;;;4.95;3.85;;;;;;;2.60;70.99;96958.34;4987030;28;20076;-55
2020/12/28 06:47:44;;;;;;;7.15;3.70;;;;;;;2.85;72.47;96950.63;4971052;28;20038;-55
2020/12/28 06:50:11;;;;;;;7.88;4.18;;;;;;;2.42;70.92;96962.91;4988169;28;20045;-56
2020/12/28 06:52:36;;;;;;;7.35;4.28;;;;;;;2.40;71.25;96966.88;4988021;28;20555;-55
2020/12/28 06:55:10;;;;;;;6.80;4.10;;;;;;;2.71;71.18;96965.41;4986780;28;20125;-56
2020/12/28 06:57:35;;;;;;;7.88;4.03;;;;;;;2.67;70.35;96969.59;4984771;28;20456;-56
2020/12/28 07:00:01;;;;;;;6.13;3.95;;;;;;;3.05;70.04;96974.88;4985162;28;20132;-56
2020/12/28 07:02:28;;;;;;;6.55;4.20;;;;;;;3.08;70.68;96973.56;4965728;28;20069;-56
2020/12/28 07:04:54;;;;;;;5.15;3.38;;;;;;;2.65;70.04;96990.41;4987720;28;20038;-54
2020/12/28 07:07:20;;;;;;;6.60;4.32;;;;;;;2.61;71.43;96973.28;4972967;28;20103;-56
2020/12/28 07:09:48;;;;;;;5.85;3.85;;;;;;;2.54;71.96;96992.91;4983518;28;20061;-56
2020/12/28 07:12:13;;;;;;;6.22;4.18;;;;;;;2.47;71.00;96994.97;4987612;28;20226;-56
2020/12/28 07:14:39;;;;;;;7.05;4.07;;;;;;;2.58;72.12;97006.56;4985320;28;20048;-56
2020/12/28 07:17:06;;;;;;;5.25;3.63;;;;;;;2.73;72.41;97014.78;4986544;28;20038;-56
2020/12/28 07:19:32;;;;;;;5.30;3.75;;;;;;;2.88;71.99;97028.28;4986432;28;20066;-55
2020/12/28 07:21:59;;;;;;;6.50;4.00;;;;;;;2.94;69.74;97020.38;4983500;28;20038;-55
2020/12/28 07:24:24;;;;;;;7.03;4.05;;;;;;;2.75;70.79;97014.53;4993602;28;20045;-55
2020/12/28 07:26:50;;;;;;;5.68;3.95;;;;;;;2.74;71.99;97023.59;4980801;28;20037;-56
2020/12/28 07:29:19;;;;;;;8.52;3.97;;;;;;;2.83;71.89;97008.78;4978780;28;20125;-57
2020/12/28 07:31:46;;;;;;;3.97;3.38;;;;;;;3.38;68.69;97023.81;4978086;28;20125;-56
2020/12/28 07:34:16;;;;;;;5.32;3.85;;;;;;;3.18;70.59;97016.38;5022040;28;20151;-56
2020/12/28 07:36:47;;;;;;;7.65;4.63;;;;;;;2.54;70.24;97026.78;4994397;28;20076;-56
2020/12/28 07:39:14;;;;;;;6.20;3.53;;;;;;;2.58;71.18;97022.56;4990398;28;20049;-54
2020/12/28 07:41:40;;;;;;;5.60;3.80;;;;;;;2.78;70.53;97032.69;5008293;28;20037;-55
2020/12/28 07:44:06;;;;;;;5.38;3.45;;;;;;;2.94;70.92;97025.72;4989556;28;20049;-56
2020/12/28 07:46:31;;;;;;;7.43;4.50;;;;;;;2.59;70.90;97018.06;5001644;28;20517;-56
2020/12/28 07:49:17;;;;;;;6.25;4.00;;;;;;;2.66;70.54;97018.66;5000619;28;20573;-55
2020/12/28 07:51:49;;;;;;;8.52;4.00;;;;;;;2.77;72.73;97021.22;5020235;28;20049;-55
2020/12/28 07:54:22;;;;;;;5.65;3.72;;;;;;;2.41;71.14;97014.63;5008526;28;20073;-55
2020/12/28 07:56:58;;;;;;;10.07;4.20;;;;;;;2.56;71.85;97014.00;5005127;28;20133;-56
2020/12/28 07:59:47;;;;;;;7.55;4.53;;;;;;;2.51;70.37;97028.09;4993659;28;20042;-55
2020/12/28 08:02:23;;;;;;;7.15;4.43;;;;;;;2.87;72.12;97016.03;4987457;28;20045;-54
2020/12/28 08:04:49;;;;;;;5.68;3.85;;;;;;;2.43;71.52;97015.16;4982861;28;20449;-56
2020/12/28 08:07:21;;;;;;;7.00;4.07;;;;;;;2.82;71.04;97002.63;4973635;28;20034;-55
2020/12/28 08:09:56;;;;;;;6.78;4.55;;;;;;;2.59;70.42;97002.06;4977511;28;20076;-57
2020/12/28 08:12:22;;;;;;;4.95;3.75;;;;;;;2.92;71.54;97020.63;4970957;28;20065;-54
2020/12/28 08:14:55;;;;;;;5.70;3.90;;;;;;;3.23;69.57;97013.78;5006327;28;20521;-55
2020/12/28 08:17:27;;;;;;;6.68;4.43;;;;;;;3.33;71.37;97024.56;5005704;28;20257;-54
2020/12/28 08:20:11;;;;;;;7.90;4.43;;;;;;;2.87;69.47;97010.69;5025557;28;20099;-56
2020/12/28 08:22:40;;;;;;;7.55;5.00;;;;;;;2.75;71.56;97012.69;4988211;28;20041;-56
2020/12/28 08:25:08;;;;;;;7.28;4.50;;;;;;;3.10;70.19;97008.84;4973420;28;20049;-55
2020/12/28 08:27:34;;;;;;;6.43;4.35;;;;;;;2.91;68.30;97014.47;4992410;28;20491;-55
2020/12/28 08:30:05;;;;;;;6.88;4.65;;;;;;;3.07;71.71;97009.31;4974020;28;20096;-55
2020/12/28 08:32:31;;;;;;;8.85;5.05;;;;;;;2.89;70.17;97016.56;5007514;28;20057;-55
2020/12/28 08:34:59;;;;;;;9.85;4.80;;;;;;;3.37;69.62;97031.00;5004589;28;20517;-56
2020/12/28 08:37:26;;;;;;;6.88;4.22;;;;;;;3.17;69.43;97026.25;5003313;28;20033;-56
2020/12/28 08:39:52;;;;;;;7.32;4.68;;;;;;;3.02;68.41;97034.06;4991891;28;20036;-56
2020/12/28 08:42:27;;;;;;;8.88;4.88;;;;;;;3.08;70.42;97037.63;5001509;28;20045;-54
2020/12/28 08:44:53;;;;;;;9.13;5.18;;;;;;;2.96;69.34;97021.75;5001331;28;20041;-57
2020/12/28 08:47:19;;;;;;;8.65;4.43;;;;;;;2.90;69.10;97023.53;4988013;28;20154;-56
2020/12/28 08:49:48;;;;;;;8.68;5.22;;;;;;;2.95;69.20;97021.97;4971439;28;20038;-55
2020/12/28 08:52:17;;;;;;;6.93;4.28;;;;;;;3.02;69.34;97010.06;4968921;28;20045;-55
2020/12/28 08:54:52;;;;;;;7.10;4.45;;;;;;;3.44;70.02;97012.94;4979622;28;20058;-55
2020/12/28 08:57:23;;;;;;;7.80;4.95;;;;;;;2.95;68.91;97011.31;4970654;28;20177;-55
2020/12/28 08:59:48;;;;;;;7.70;5.00;;;;;;;3.44;68.77;97015.59;4970566;28;20042;-55
2020/12/28 09:02:16;;;;;;;10.82;5.03;;;;;;;3.18;68.48;97009.19;4972082;28;20034;-55
2020/12/28 09:04:41;;;;;;;6.70;4.38;;;;;;;3.08;68.78;97010.94;4987047;28;20499;-55
2020/12/28 09:07:07;;;;;;;6.90;4.75;;;;;;;3.18;69.41;97003.84;4977944;28;20075;-54
2020/12/28 09:09:33;;;;;;;7.45;4.78;;;;;;;2.90;68.86;97012.03;4990390;28;20040;-55
2020/12/28 09:11:59;;;;;;;6.70;4.60;;;;;;;3.34;70.94;97007.50;4989058;28;20053;-55
2020/12/28 09:14:25;;;;;;;7.18;5.10;;;;;;;3.10;69.77;97009.63;5010653;28;20225;-56
2020/12/28 09:16:50;;;;;;;8.50;5.03;;;;;;;3.00;69.26;97012.16;4991413;28;20133;-55
2020/12/28 09:19:16;;;;;;;7.05;4.28;;;;;;;2.90;69.39;96999.50;4982543;28;20080;-57
2020/12/28 09:21:43;;;;;;;8.38;5.45;;;;;;;3.04;69.35;96999.13;5010460;28;20044;-57
2020/12/28 09:24:08;;;;;;;10.30;5.53;;;;;;;3.40;67.87;96987.78;5010405;28;20037;-56
2020/12/28 09:26:37;;;;;;;9.13;5.22;;;;;;;3.05;68.56;96984.75;4994072;28;20308;-56
2020/12/28 09:29:02;;;;;;;9.38;5.75;;;;;;;3.20;69.50;96974.25;4991746;28;20557;-55
2020/12/28 09:31:28;;;;;;;10.48;6.00;;;;;;;3.26;68.45;96979.38;5008603;28;20277;-56
2020/12/28 09:33:54;;;;;;;9.57;5.22;;;;;;;3.14;68.43;96980.56;4993703;28;20116;-56
2020/12/28 09:36:20;;;;;;;9.45;4.65;;;;;;;3.26;67.95;96992.72;4994394;28;20069;-55
2020/12/28 09:38:46;;;;;;;8.48;5.20;;;;;;;3.28;67.36;96984.47;4996044;28;20038;-55
2020/12/28 09:41:12;;;;;;;7.90;5.00;;;;;;;3.39;68.59;96980.03;4990331;28;20045;-55
2020/12/28 09:43:39;;;;;;;8.50;5.35;;;;;;;3.45;67.36;96990.53;4993336;28;20046;-55
2020/12/28 09:46:05;;;;;;;10.05;5.72;;;;;;;3.52;66.68;96980.44;4989155;28;20091;-55
2020/12/28 09:48:31;;;;;;;9.70;5.28;;;;;;;3.52;67.06;96975.09;4973372;28;20046;-56
2020/12/28 09:50:57;;;;;;;9.35;5.53;;;;;;;3.28;67.60;96971.91;4973215;28;20144;-55
2020/12/28 09:53:23;;;;;;;10.88;5.68;;;;;;;3.34;66.76;96996.00;4971778;28;20113;-55
2020/12/28 09:55:48;;;;;;;9.63;6.00;;;;;;;3.52;68.30;96975.09;4970199;28;20042;-59
2020/12/28 09:58:14;;;;;;;8.88;5.75;;;;;;;3.31;67.91;96983.16;4965915;28;20041;-54
2020/12/28 10:00:40;;;;;;;10.70;6.57;;;;;;;3.36;67.86;96981.31;4966315;28;20411;-56
2020/12/28 10:03:06;;;;;;;9.52;6.18;;;;;;;3.26;69.07;96982.03;4973548;28;20068;-55
2020/12/28 10:05:32;;;;;;;11.25;5.97;;;;;;;2.99;68.05;96975.88;4965622;28;20038;-56
2020/12/28 10:07:58;;;;;;;8.48;5.28;;;;;;;2.98;68.19;96968.13;4972164;28;20384;-55
2020/12/28 10:10:24;;;;;;;10.85;6.57;;;;;;;3.22;69.77;96969.47;4988136;28;20052;-55
2020/12/28 10:12:50;;;;;;;11.45;6.72;;;;;;;3.63;68.74;96970.63;4986028;28;20069;-56
2020/12/28 10:15:18;;;;;;;9.40;5.85;;;;;;;3.53;69.61;96963.34;4989128;28;20045;-55
2020/12/28 10:18:28;;;;;;;14.02;5.97;;;;;;;3.57;69.00;96956.44;4989614;28;20054;-55
2020/12/28 10:20:55;;;;;;;13.15;7.78;;;;;;;3.14;68.16;96949.34;4959964;28;20042;-55
2020/12/28 10:23:20;;;;;;;9.55;6.10;;;;;;;3.08;68.00;96945.03;4972230;28;20048;-56
2020/12/28 10:25:46;;;;;;;8.57;5.95;;;;;;;3.19;68.05;96946.75;4969081;28;20042;-58
2020/12/28 10:28:11;;;;;;;11.18;6.38;;;;;;;3.25;67.96;96937.72;4967191;28;20049;-55
2020/12/28 10:30:37;;;;;;;8.38;5.35;;;;;;;3.19;67.55;96928.06;4967191;28;20180;-55
2020/12/28 10:33:02;;;;;;;9.35;5.80;;;;;;;3.18;67.71;96928.31;4970761;28;20061;-56
2020/12/28 10:35:28;;;;;;;11.95;5.82;;;;;;;3.03;68.13;96936.16;4968852;28;20665;-56
2020/12/28 10:37:56;;;;;;;10.63;6.78;;;;;;;3.06;68.51;96936.47;4970937;28;20116;-55
2020/12/28 10:40:22;;;;;;;10.50;5.95;;;;;;;3.06;68.41;96941.78;4986273;28;20065;-57
2020/12/28 10:42:48;;;;;;;10.35;6.30;;;;;;;3.12;68.04;96939.97;4986496;28;20077;-55
2020/12/28 10:45:13;;;;;;;9.98;6.07;;;;;;;3.07;68.26;96927.41;4988991;28;20133;-55
2020/12/28 10:47:39;;;;;;;8.63;5.95;;;;;;;3.20;67.13;96921.66;4987977;28;20030;-56
2020/12/28 10:50:05;;;;;;;10.88;6.70;;;;;;;3.07;67.64;96930.06;4986579;28;20061;-55
2020/12/28 10:52:30;;;;;;;11.38;6.25;;;;;;;3.36;68.20;96940.47;4990177;28;20033;-54
2020/12/28 10:54:56;;;;;;;10.80;5.95;;;;;;;3.18;68.33;96929.09;4973217;28;20095;-55
2020/12/28 10:57:22;;;;;;;11.88;6.13;;;;;;;3.53;67.37;96933.16;4972481;28;20042;-57
2020/12/28 10:59:47;;;;;;;10.18;6.10;;;;;;;3.06;68.20;96933.78;5010683;28;20223;-55
2020/12/28 11:02:13;;;;;;;12.20;7.05;;;;;;;3.53;69.61;96927.81;4990856;28;20034;-55
2020/12/28 11:04:38;;;;;;;12.93;6.43;;;;;;;3.67;69.00;96912.97;4988874;28;20041;-56
2020/12/28 11:07:04;;;;;;;10.13;6.07;;;;;;;3.35;67.67;96923.63;4988500;28;20073;-56
2020/12/28 11:09:30;;;;;;;11.27;6.95;;;;;;;3.12;67.93;96923.97;4992012;28;20045;-56
2020/12/28 11:11:56;;;;;;;9.95;5.60;;;;;;;3.36;67.83;96919.91;5003588;28;20033;-56
2020/12/28 11:14:22;;;;;;;11.65;6.22;;;;;;;3.44;66.85;96919.47;4989381;28;20095;-55
2020/12/28 11:16:47;;;;;;;11.82;6.60;;;;;;;3.44;66.94;96930.16;4989690;28;20046;-56
2020/12/28 11:19:13;;;;;;;10.90;6.03;;;;;;;3.38;68.19;96931.16;4989741;28;20042;-57
2020/12/28 11:21:39;;;;;;;8.95;5.93;;;;;;;3.22;67.59;96924.09;4989605;28;20053;-56
2020/12/28 11:24:05;;;;;;;10.38;6.53;;;;;;;3.11;67.93;96933.03;4988668;28;20152;-55
2020/12/28 11:26:32;;;;;;;10.05;6.65;;;;;;;3.34;68.17;96932.75;4988565;28;20087;-55
2020/12/28 11:28:59;;;;;;;11.05;6.30;;;;;;;3.38;68.23;96935.69;4994179;28;20125;-56
2020/12/28 11:31:25;;;;;;;12.70;6.53;;;;;;;3.46;68.80;96928.00;4992238;28;20041;-56
2020/12/28 11:33:52;;;;;;;10.13;6.53;;;;;;;3.44;69.86;96924.81;4994751;28;20222;-55
2020/12/28 11:36:18;;;;;;;10.63;6.88;;;;;;;3.20;67.14;96921.66;4998899;28;20041;-56
2020/12/28 11:38:45;;;;;;;11.55;6.20;;;;;;;3.32;69.62;96931.38;4983177;28;20037;-54
2020/12/28 11:41:18;;;;;;;11.98;6.75;;;;;;;3.42;68.64;96926.94;4980617;28;20446;-56
2020/12/28 11:43:44;;;;;;;9.75;6.25;;;;;;;3.27;67.22;96937.47;5009383;28;20112;-56
2020/12/28 11:46:11;;;;;;;10.30;6.57;;;;;;;3.12;68.41;96929.28;5003139;28;20132;-57
2020/12/28 11:48:39;;;;;;;10.07;6.45;;;;;;;3.28;68.26;96925.72;5007947;28;20061;-55
2020/12/28 11:51:06;;;;;;;10.90;7.30;;;;;;;3.05;68.09;96936.69;5008137;28;20709;-56
2020/12/28 11:53:36;;;;;;;11.75;6.82;;;;;;;3.19;67.83;96941.41;5007859;28;20454;-56
2020/12/28 11:56:12;;;;;;;11.98;7.68;;;;;;;3.12;68.31;96926.63;5008162;28;20199;-56
2020/12/28 11:58:41;;;;;;;11.43;6.97;;;;;;;3.42;68.33;96924.25;5008207;28;20030;-55
2020/12/28 12:01:17;;;;;;;10.40;7.18;;;;;;;3.34;67.57;96924.72;5007105;28;20057;-56
2020/12/28 12:03:46;;;;;;;12.02;6.85;;;;;;;3.55;68.40;96920.38;4991756;28;20176;-55
2020/12/28 12:06:15;;;;;;;11.85;6.70;;;;;;;3.34;67.72;96926.59;5024271;28;20505;-55
2020/12/28 12:09:09;;;;;;;13.45;6.82;;;;;;;3.50;68.40;96929.13;4992401;28;20045;-56
2020/12/28 12:11:27;;;;;;;11.13;6.80;;;;;;;3.51;67.62;96920.06;4986948;28;20041;-56
2020/12/28 12:13:52;;;;;;;12.57;7.10;;;;;;;3.42;67.72;96905.56;4988054;28;20038;-54
2020/12/28 12:16:25;;;;;;;12.13;6.50;;;;;;;3.32;67.21;96916.16;4987703;28;20041;-57
2020/12/28 12:18:51;;;;;;;11.50;7.65;;;;;;;3.56;68.05;96922.78;4972173;28;20049;-55
2020/12/28 12:21:18;;;;;;;11.88;7.43;;;;;;;3.32;67.05;96910.81;4970374;28;20436;-57
2020/12/28 12:23:43;;;;;;;11.50;7.57;;;;;;;3.17;67.51;96913.34;4972397;28;20398;-56
2020/12/28 12:26:09;;;;;;;10.98;7.00;;;;;;;3.48;69.13;96919.75;4959503;28;20447;-55
2020/12/28 12:28:36;;;;;;;15.07;7.65;;;;;;;3.69;67.37;96902.03;4968488;28;20033;-56
2020/12/28 12:31:02;;;;;;;10.07;5.95;;;;;;;2.99;68.00;96925.19;5005767;28;20064;-55
2020/12/28 12:33:28;;;;;;;11.90;7.25;;;;;;;3.34;68.72;96926.59;5007991;28;20148;-56
2020/12/28 12:35:54;;;;;;;12.23;7.35;;;;;;;3.01;68.42;96928.38;5004571;28;20136;-57
2020/12/28 12:38:21;;;;;;;12.30;7.65;;;;;;;3.03;68.65;96920.94;4977363;28;20042;-55
2020/12/28 12:40:47;;;;;;;12.38;7.25;;;;;;;3.16;69.13;96917.88;4986784;28;20042;-58
2020/12/28 12:43:14;;;;;;;12.80;8.07;;;;;;;3.07;70.06;96910.56;4988685;28;20034;-55
2020/12/28 12:45:39;;;;;;;13.63;7.82;;;;;;;2.93;70.16;96915.50;4988793;28;20057;-54
2020/12/28 12:48:06;;;;;;;13.60;7.65;;;;;;;2.79;70.77;96915.09;4975070;28;20038;-56
2020/12/28 12:50:32;;;;;;;12.18;8.18;;;;;;;2.89;70.71;96911.72;4975321;28;20034;-55
2020/12/28 12:52:58;;;;;;;13.50;7.78;;;;;;;2.91;70.40;96909.59;4974272;28;20410;-55
2020/12/28 12:55:24;;;;;;;13.52;7.97;;;;;;;2.91;70.63;96898.94;4974304;28;20045;-56
2020/12/28 12:57:50;;;;;;;16.20;8.75;;;;;;;3.00;70.45;96891.31;4985775;28;20041;-56
2020/12/28 13:00:18;;;;;;;13.60;7.40;;;;;;;2.96;70.30;96890.19;4990413;28;20042;-54
2020/12/28 13:02:45;;;;;;;14.43;8.15;;;;;;;3.01;70.54;96899.03;4989243;28;20045;-55
2020/12/28 13:05:12;;;;;;;14.10;7.38;;;;;;;3.62;70.18;96911.06;4975143;28;20507;-55
2020/12/28 13:07:40;;;;;;;14.38;8.68;;;;;;;2.98;69.90;96912.91;4974839;28;20037;-56
2020/12/28 13:10:08;;;;;;;14.80;8.50;;;;;;;3.03;71.94;96920.94;4990373;28;20387;-57
2020/12/28 13:12:35;;;;;;;14.25;8.35;;;;;;;3.25;70.39;96918.22;4975012;28;20083;-56
2020/12/28 13:15:02;;;;;;;13.23;7.88;;;;;;;3.04;72.47;96916.41;4974250;28;20045;-55
2020/12/28 13:17:28;;;;;;;11.00;6.53;;;;;;;2.94;73.36;96895.78;4989174;28;20044;-56
2020/12/28 13:19:54;;;;;;;13.55;8.43;;;;;;;2.89;70.25;96907.19;4973022;28;20395;-56
2020/12/28 13:22:20;;;;;;;13.50;7.93;;;;;;;2.71;71.73;96910.19;4973373;28;20335;-55
2020/12/28 13:24:47;;;;;;;14.52;8.93;;;;;;;2.71;71.35;96914.72;4975429;28;20037;-55
2020/12/28 13:27:14;;;;;;;14.13;7.97;;;;;;;2.70;70.66;96921.91;4975067;28;20406;-55
2020/12/28 13:29:41;;;;;;;13.38;7.95;;;;;;;2.71;70.60;96922.72;4958637;28;20572;-55
2020/12/28 13:32:07;;;;;;;14.25;8.32;;;;;;;2.81;70.63;96931.66;4974660;28;20049;-55
2020/12/28 13:34:33;;;;;;;12.82;8.27;;;;;;;2.75;70.76;96939.84;4974657;28;20407;-56
2020/12/28 13:36:59;;;;;;;13.40;8.23;;;;;;;2.66;70.19;96934.13;4973427;28;20048;-54
2020/12/28 13:39:26;;;;;;;13.07;7.93;;;;;;;2.83;70.75;96932.22;4989802;28;20124;-55
2020/12/28 13:41:57;;;;;;;17.67;9.68;;;;;;;2.76;70.47;96933.47;4998905;28;20038;-56
2020/12/28 13:44:23;;;;;;;13.80;7.70;;;;;;;2.71;70.37;96925.41;4990448;28;20042;-55
2020/12/28 13:46:49;;;;;;;13.90;8.35;;;;;;;2.60;69.94;96913.81;4993242;28;20038;-55
2020/12/28 13:49:15;;;;;;;16.77;9.45;;;;;;;2.59;70.93;96911.38;5000835;28;20139;-55
2020/12/28 13:51:41;;;;;;;16.35;9.43;;;;;;;2.60;70.49;96921.81;4993748;28;20510;-56
2020/12/28 13:54:07;;;;;;;12.07;8.32;;;;;;;2.68;71.17;96931.22;4993035;28;20049;-57
2020/12/28 13:56:33;;;;;;;13.82;9.02;;;;;;;2.71;69.97;96914.72;5007867;28;20033;-57
2020/12/28 13:58:59;;;;;;;14.00;9.18;;;;;;;2.59;70.33;96900.72;5009610;28;20057;-56
2020/12/28 14:01:27;;;;;;;14.35;8.82;;;;;;;2.70;70.22;96889.09;5007369;28;20120;-55
2020/12/28 14:03:54;;;;;;;13.20;8.13;;;;;;;2.55;69.54;96879.06;5016027;28;20050;-55
2020/12/28 14:06:21;;;;;;;15.15;8.80;;;;;;;2.79;70.52;96866.25;4974382;28;20116;-54
2020/12/28 14:08:49;;;;;;;15.93;9.00;;;;;;;2.72;70.23;96853.13;4972561;28;20456;-58
2020/12/28 14:11:27;;;;;;;15.50;8.77;;;;;;;2.88;70.53;96859.44;4989906;28;20230;-55
2020/12/28 14:13:54;;;;;;;15.07;8.85;;;;;;;2.74;69.43;96872.38;4972636;28;20114;-55
2020/12/28 14:16:20;;;;;;;12.77;8.05;;;;;;;2.96;70.16;96864.31;4989475;28;20443;-56
2020/12/28 14:18:46;;;;;;;14.52;8.35;;;;;;;3.03;69.27;96880.91;4989661;28;20058;-55
2020/12/28 14:21:14;;;;;;;13.80;8.60;;;;;;;2.89;69.30;96869.84;4973232;28;20569;-56
2020/12/28 14:23:42;;;;;;;15.07;9.32;;;;;;;2.87;69.07;96855.16;4989606;28;20264;-55
2020/12/28 14:26:10;;;;;;;15.50;8.25;;;;;;;2.82;69.90;96857.75;4973804;28;20042;-55
2020/12/28 14:28:36;;;;;;;13.10;8.23;;;;;;;2.98;69.24;96867.53;4988913;28;20042;-55
2020/12/28 14:31:03;;;;;;;14.85;8.52;;;;;;;3.15;70.88;96854.88;4990774;28;20551;-55
2020/12/28 14:33:29;;;;;;;14.20;9.02;;;;;;;2.84;69.53;96864.47;4965415;28;20120;-56
2020/12/28 14:35:55;;;;;;;15.20;8.68;;;;;;;2.74;68.97;96863.56;4978685;28;20341;-56
2020/12/28 14:38:22;;;;;;;14.68;8.95;;;;;;;2.68;70.75;96843.22;4989658;28;20410;-55
2020/12/28 14:40:49;;;;;;;17.35;10.23;;;;;;;2.73;70.61;96841.41;4988406;28;20037;-55
2020/12/28 14:43:14;;;;;;;14.05;9.48;;;;;;;3.12;71.87;96857.22;4990152;28;20046;-57
2020/12/28 14:45:41;;;;;;;16.70;9.30;;;;;;;2.78;70.03;96873.47;4989305;28;20121;-55
2020/12/28 14:48:06;;;;;;;14.68;8.65;;;;;;;3.08;69.52;96867.63;5004023;28;22726;-56
2020/12/28 14:50:32;;;;;;;16.00;9.65;;;;;;;3.20;71.16;96868.28;4992392;28;20065;-56
2020/12/28 14:52:59;;;;;;;17.50;8.90;;;;;;;3.11;71.01;96880.47;4991302;28;20117;-55
2020/12/28 14:55:25;;;;;;;17.80;8.77;;;;;;;3.06;69.83;96860.94;4993047;28;20030;-56
2020/12/28 14:57:50;;;;;;;15.52;9.13;;;;;;;2.98;72.71;96870.22;4991875;28;20060;-55
2020/12/28 15:00:16;;;;;;;15.75;9.52;;;;;;;2.84;69.93;96861.78;4992900;28;20099;-57
2020/12/28 15:02:42;;;;;;;13.98;8.88;;;;;;;2.96;70.00;96853.63;5009077;28;20052;-55
2020/12/28 15:05:08;;;;;;;14.80;9.48;;;;;;;2.87;69.03;96860.50;4993166;28;20128;-57
2020/12/28 15:07:36;;;;;;;13.90;9.27;;;;;;;3.15;69.19;96862.06;5003047;28;20050;-56
2020/12/28 15:10:03;;;;;;;12.45;7.90;;;;;;;2.82;69.41;96850.56;4989177;28;20100;-54
2020/12/28 15:12:28;;;;;;;14.00;8.50;;;;;;;2.88;68.83;96854.88;4988291;28;20511;-56
2020/12/28 15:14:55;;;;;;;14.25;8.60;;;;;;;3.04;69.93;96844.34;4987793;28;20034;-55
2020/12/28 15:17:21;;;;;;;12.30;8.18;;;;;;;3.06;69.37;96847.59;4987792;28;20492;-57
2020/12/28 15:19:46;;;;;;;14.20;8.23;;;;;;;2.96;69.09;96856.31;4989214;28;20042;-59
2020/12/28 15:22:12;;;;;;;14.63;8.88;;;;;;;2.86;69.17;96858.88;4989031;28;20398;-54
2020/12/28 15:24:38;;;;;;;16.02;9.38;;;;;;;2.98;69.04;96851.53;4989190;28;20465;-55
2020/12/28 15:27:04;;;;;;;14.80;9.98;;;;;;;2.85;69.20;96851.94;4982412;28;20045;-56
2020/12/28 15:29:29;;;;;;;14.60;9.13;;;;;;;2.75;69.45;96868.66;4983507;28;20333;-55
2020/12/28 15:31:56;;;;;;;15.38;9.38;;;;;;;2.67;68.95;96863.75;5008435;28;20053;-55
2020/12/28 15:34:22;;;;;;;14.10;8.88;;;;;;;3.09;70.00;96866.56;4997971;28;20667;-55
2020/12/28 15:36:48;;;;;;;15.77;9.73;;;;;;;2.65;68.99;96867.72;4997218;28;20044;-55
2020/12/28 15:39:14;;;;;;;16.83;9.10;;;;;;;2.57;69.11;96868.16;4999943;28;20038;-55
2020/12/28 15:41:39;;;;;;;17.50;8.90;;;;;;;2.50;69.65;96853.16;4997021;28;20042;-55
2020/12/28 15:44:05;;;;;;;14.95;8.52;;;;;;;2.46;69.46;96851.25;4979151;28;20058;-56
2020/12/28 15:46:34;;;;;;;14.90;9.35;;;;;;;2.61;69.53;96847.94;4972595;28;20073;-56
2020/12/28 15:49:09;;;;;;;15.20;8.90;;;;;;;2.55;68.97;96847.06;5016771;28;20049;-56
2020/12/28 15:51:38;;;;;;;16.85;10.23;;;;;;;2.48;69.19;96847.28;5007539;28;20041;-56
2020/12/28 15:54:03;;;;;;;15.32;9.45;;;;;;;2.49;68.87;96830.22;4990790;28;20567;-57
2020/12/28 15:56:30;;;;;;;17.48;10.52;;;;;;;3.22;73.32;96830.66;5005991;28;20434;-55
2020/12/28 15:58:55;;;;;;;12.55;8.38;;;;;;;2.57;68.74;96828.16;4988114;28;20038;-57
2020/12/28 16:01:21;;;;;;;18.85;10.15;;;;;;;2.64;67.67;96831.44;4969683;28;20069;-55
2020/12/28 16:03:48;;;;;;;15.32;9.43;;;;;;;2.70;67.59;96828.56;4970972;28;20682;-58
2020/12/28 16:06:13;;;;;;;14.85;9.40;;;;;;;2.71;67.92;96829.38;4971942;28;20270;-55
2020/12/28 16:08:39;;;;;;;19.38;11.20;;;;;;;2.75;68.82;96823.31;4985737;28;20108;-56
2020/12/28 16:11:05;;;;;;;15.43;9.57;;;;;;;2.73;68.00;96811.25;4989931;28;20060;-55
2020/12/28 16:13:31;;;;;;;19.10;11.02;;;;;;;2.90;68.05;96812.75;4989418;28;20559;-55
2020/12/28 16:16:00;;;;;;;16.98;9.93;;;;;;;2.64;67.33;96824.25;4999780;28;20445;-55
2020/12/28 16:18:25;;;;;;;16.52;10.10;;;;;;;2.62;67.82;96822.88;4965141;28;20044;-56
2020/12/28 16:20:51;;;;;;;16.30;9.73;;;;;;;2.58;68.23;96811.91;4986505;28;20034;-55
2020/12/28 16:23:17;;;;;;;15.13;9.88;;;;;;;3.12;69.22;96817.19;4973861;28;20045;-58
2020/12/28 16:25:42;;;;;;;15.45;9.93;;;;;;;2.82;67.03;96826.56;4976223;28;20510;-57
2020/12/28 16:28:08;;;;;;;16.77;10.15;;;;;;;2.92;66.82;96831.19;4975685;28;20052;-56
2020/12/28 16:30:34;;;;;;;15.90;9.30;;;;;;;2.78;66.64;96816.63;4960138;28;20046;-56
2020/12/28 16:33:04;;;;;;;17.52;9.75;;;;;;;2.72;67.20;96823.00;4956278;28;20339;-55
2020/12/28 16:35:31;;;;;;;17.13;10.15;;;;;;;2.84;67.04;96813.78;4956833;28;20030;-56
2020/12/28 16:37:57;;;;;;;19.88;9.85;;;;;;;2.69;66.48;96820.81;4963106;28;20030;-56